Time;durP1;ratioP1;P1;durP2;ratioP2;P2;SDS_P1;SDS_P2;PMS_P1;PMS_P2;Temp;Humidity;BMP_temperature;BMP_pressure;BME280_temperature;BME280_humidity;BME280_pressure;Samples;Min_cycle;Max_cycle;Signal;HPM_P1;HPM_P2
2022/03/24 00:02:12;;;;;;;;;54.50;43.25;;;;;10.63;45.00;102457.63;5080374;27;45487;-77
2022/03/24 00:04:37;;;;;;;;;52.50;42.75;;;;;10.77;45.09;102500.63;5078624;28;45466;-76
2022/03/24 00:07:03;;;;;;;;;54.00;40.50;;;;;10.79;44.70;102506.03;5076502;28;45422;-76
2022/03/24 00:09:29;;;;;;;;;55.75;43.00;;;;;10.64;45.51;102488.53;5081027;28;46582;-74
2022/03/24 00:11:55;;;;;;;;;46.25;37.00;;;;;10.74;44.72;102508.41;5076008;28;45283;-75
2022/03/24 00:14:20;;;;;;;;;43.25;37.00;;;;;10.59;44.86;102482.09;5081236;27;45327;-76
2022/03/24 00:16:46;;;;;;;;;52.00;40.75;;;;;10.52;44.45;102477.31;5080503;27;45549;-74
2022/03/24 00:19:11;;;;;;;;;56.00;44.25;;;;;10.64;44.64;102501.75;5080928;28;45184;-75
2022/03/24 00:21:37;;;;;;;;;52.75;41.75;;;;;10.61;45.22;102503.31;5077312;28;46132;-74
2022/03/24 00:24:03;;;;;;;;;58.00;44.00;;;;;10.37;44.61;102464.22;5081439;28;45386;-74
2022/03/24 00:26:29;;;;;;;;;54.50;44.75;;;;;10.48;44.90;102484.19;5079203;28;45486;-76
2022/03/24 00:28:54;;;;;;;;;58.75;44.25;;;;;10.50;45.29;102487.84;5079623;28;45648;-76
2022/03/24 00:31:20;;;;;;;;;54.50;45.00;;;;;10.49;45.12;102485.09;5080432;27;45466;-75
2022/03/24 00:33:45;;;;;;;;;58.25;44.00;;;;;10.07;45.62;102419.47;5082304;28;45316;-76
2022/03/24 00:36:11;;;;;;;;;53.00;43.50;;;;;10.41;45.03;102475.84;5077733;27;45387;-75
2022/03/24 00:38:38;;;;;;;;;56.00;44.75;;;;;10.25;45.21;102452.97;5077455;28;46212;-75
2022/03/24 00:41:04;;;;;;;;;56.00;43.75;;;;;10.36;45.88;102483.53;5077329;28;45463;-75
2022/03/24 00:43:30;;;;;;;;;62.00;47.00;;;;;10.35;45.89;102483.47;5081008;28;45257;-75
2022/03/24 00:45:55;;;;;;;;;58.50;44.25;;;;;10.33;46.04;102482.47;5073782;28;45233;-75
2022/03/24 00:48:23;;;;;;;;;52.00;42.75;;;;;10.32;46.25;102480.66;5080667;27;46118;-75
2022/03/24 00:50:49;;;;;;;;;56.00;41.75;;;;;9.95;45.59;102428.50;5075364;28;45419;-75
2022/03/24 00:53:15;;;;;;;;;55.50;44.00;;;;;10.26;45.58;102478.59;5075009;27;45359;-74
2022/03/24 00:55:41;;;;;;;;;50.75;39.25;;;;;10.22;46.57;102474.88;5079815;27;45755;-75
2022/03/24 00:58:07;;;;;;;;;56.00;42.75;;;;;9.94;45.93;102438.16;5080738;27;46100;-74
2022/03/24 01:00:32;;;;;;;;;56.50;43.25;;;;;10.10;46.20;102468.94;5076218;28;45387;-75
2022/03/24 01:02:58;;;;;;;;;55.75;42.25;;;;;10.14;46.77;102472.63;5080850;28;45624;-75
2022/03/24 01:05:27;;;;;;;;;57.00;42.50;;;;;10.09;46.82;102468.03;5080533;28;45304;-74
2022/03/24 01:07:53;;;;;;;;;54.75;44.25;;;;;10.05;46.37;102473.06;5072798;28;46177;-74
2022/03/24 01:10:19;;;;;;;;;55.00;43.75;;;;;9.92;46.90;102454.75;5080111;27;45243;-74
2022/03/24 01:12:46;;;;;;;;;55.50;44.00;;;;;9.98;47.56;102477.09;5071530;27;45328;-74
2022/03/24 01:15:17;;;;;;;;;52.00;42.25;;;;;9.94;46.44;102469.88;5079981;28;45353;-75
2022/03/24 01:17:44;;;;;;;;;51.50;43.00;;;;;9.93;46.34;102475.06;5076119;28;47420;-75
2022/03/24 01:20:11;;;;;;;;;54.25;43.25;;;;;9.75;47.48;102448.56;5065620;28;45736;-75
2022/03/24 01:22:37;;;;;;;;;42.25;37.25;;;;;9.76;47.47;102461.84;5079882;28;45498;-75
2022/03/24 01:25:04;;;;;;;;;53.50;42.75;;;;;9.61;47.75;102445.16;5079024;28;46528;-75
2022/03/24 01:27:29;;;;;;;;;58.75;46.25;;;;;9.62;47.80;102455.81;5074005;28;48418;-75
2022/03/24 01:29:56;;;;;;;;;54.50;43.50;;;;;9.68;46.47;102456.97;5079111;28;45690;-76
2022/03/24 01:32:22;;;;;;;;;53.25;44.50;;;;;9.52;47.73;102436.72;5078490;28;45219;-76
2022/03/24 01:34:48;;;;;;;;;48.75;40.00;;;;;9.56;47.67;102446.66;5081124;27;45298;-75
2022/03/24 01:37:14;;;;;;;;;52.50;43.50;;;;;9.58;48.12;102464.38;5079221;27;45312;-75
2022/03/24 01:39:40;;;;;;;;;50.50;41.75;;;;;9.56;47.48;102460.75;5078188;28;45251;-75
2022/03/24 01:42:06;;;;;;;;;56.00;42.00;;;;;9.53;45.27;102452.66;5077377;28;45433;-76
2022/03/24 01:44:32;;;;;;;;;51.25;42.00;;;;;9.29;46.92;102415.25;5077533;27;45273;-75
2022/03/24 01:47:07;;;;;;;;;55.00;42.75;;;;;9.17;46.98;102404.03;5077559;28;48446;-75
2022/03/24 01:49:36;;;;;;;;;51.75;41.50;;;;;9.32;49.07;102448.81;5078177;28;45417;-75
2022/03/24 01:52:05;;;;;;;;;50.25;40.00;;;;;9.20;47.59;102433.22;5078585;28;45353;-75
2022/03/24 01:54:32;;;;;;;;;49.75;38.50;;;;;9.31;48.61;102449.66;5079640;28;45454;-74
2022/03/24 01:56:59;;;;;;;;;52.25;40.25;;;;;9.26;48.71;102441.47;5074342;28;47530;-75
2022/03/24 01:59:25;;;;;;;;;53.50;40.50;;;;;9.13;48.54;102417.84;5074248;28;46047;-74
2022/03/24 02:01:51;;;;;;;;;50.00;40.75;;;;;9.26;49.41;102448.50;5076749;28;45501;-75
2022/03/24 02:04:19;;;;;;;;;55.25;42.25;;;;;9.01;48.67;102415.44;5079709;28;45230;-75
2022/03/24 02:06:45;;;;;;;;;61.00;46.00;;;;;9.18;49.28;102451.59;5078854;27;47234;-75
2022/03/24 02:09:12;;;;;;;;;49.75;40.50;;;;;9.04;49.67;102427.91;5078219;28;45379;-75
2022/03/24 02:11:37;;;;;;;;;53.50;41.25;;;;;9.15;50.38;102447.88;5076437;28;45440;-75
2022/03/24 02:14:04;;;;;;;;;50.75;41.00;;;;;8.82;46.95;102389.78;5080389;28;45548;-75
2022/03/24 02:16:35;;;;;;;;;56.50;43.25;;;;;9.00;49.09;102428.56;5078785;28;46232;-76
2022/03/24 02:19:17;;;;;;;;;55.50;43.75;;;;;9.07;48.66;102441.25;5077592;28;45422;-75
2022/03/24 02:21:44;;;;;;;;;59.25;45.50;;;;;9.01;49.45;102430.38;5070860;28;45335;-75
2022/03/24 02:24:12;;;;;;;;;53.50;43.25;;;;;8.84;49.29;102400.41;5079275;28;45209;-75
2022/03/24 02:26:40;;;;;;;;;57.75;44.00;;;;;9.01;50.05;102439.19;5078463;27;45953;-74
2022/03/24 02:29:07;;;;;;;;;52.00;42.00;;;;;8.98;50.17;102444.28;5079573;28;45315;-75
2022/03/24 02:31:38;;;;;;;;;57.25;44.25;;;;;8.93;49.65;102440.47;5076242;28;45375;-75
2022/03/24 02:36:50;;;;;;;;;53.25;43.00;;;;;8.74;50.81;102407.78;5076883;28;45347;-76
2022/03/24 02:39:16;;;;;;;;;50.50;39.00;;;;;8.68;50.47;102404.81;5075050;28;45288;-75
2022/03/24 02:41:51;;;;;;;;;50.00;41.25;;;;;8.73;49.88;102419.13;5076667;28;45225;-76
2022/03/24 02:44:17;;;;;;;;;54.00;43.00;;;;;8.85;50.78;102445.31;5096318;27;45913;-76
2022/03/24 02:46:47;;;;;;;;;55.25;42.50;;;;;8.86;50.23;102436.59;5076227;28;45357;-76
2022/03/24 02:49:19;;;;;;;;;46.25;38.25;;;;;8.80;49.51;102437.97;5071039;28;45427;-75
2022/03/24 02:51:46;;;;;;;;;52.00;41.75;;;;;8.66;50.63;102416.97;5077992;28;45402;-74
2022/03/24 02:54:12;;;;;;;;;51.50;38.75;;;;;8.77;50.30;102438.69;5071591;28;45931;-75
2022/03/24 02:56:38;;;;;;;;;47.50;38.25;;;;;8.75;50.54;102442.97;5072363;28;45466;-74
2022/03/24 02:59:05;;;;;;;;;58.00;44.00;;;;;8.47;51.28;102403.53;5074492;28;45887;-76
2022/03/24 03:01:33;;;;;;;;;59.00;45.25;;;;;8.72;50.95;102450.69;5077991;28;45308;-75
2022/03/24 03:03:59;;;;;;;;;62.75;47.00;;;;;8.69;51.17;102442.63;5075822;28;45273;-75
2022/03/24 03:06:25;;;;;;;;;60.00;44.00;;;;;8.52;51.49;102421.44;5072857;28;47194;-75
2022/03/24 03:08:50;;;;;;;;;55.75;44.25;;;;;8.42;51.13;102399.72;5075894;27;45382;-75
2022/03/24 03:11:16;;;;;;;;;54.00;42.00;;;;;8.47;50.58;102415.00;5078199;28;45456;-75
2022/03/24 03:13:43;;;;;;;;;60.50;46.00;;;;;8.49;51.30;102426.53;5076866;28;47104;-75
2022/03/24 03:16:08;;;;;;;;;55.50;44.25;;;;;8.35;51.47;102411.59;5075413;28;46431;-75
2022/03/24 03:18:34;;;;;;;;;59.50;46.25;;;;;8.49;49.65;102439.72;5075049;28;45411;-75
2022/03/24 03:21:00;;;;;;;;;57.75;43.25;;;;;8.42;51.62;102437.53;5073024;28;45501;-74
2022/03/24 03:23:25;;;;;;;;;60.50;48.50;;;;;8.35;51.67;102432.69;5076300;28;45351;-75
2022/03/24 03:25:51;;;;;;;;;55.00;44.25;;;;;8.33;51.21;102430.78;5077865;28;46183;-75
2022/03/24 03:28:17;;;;;;;;;57.25;42.50;;;;;8.38;51.41;102435.50;5078242;27;45254;-74
2022/03/24 03:30:43;;;;;;;;;57.50;45.75;;;;;8.38;51.63;102446.03;5077605;28;45284;-74
2022/03/24 03:33:10;;;;;;;;;52.50;42.00;;;;;8.17;51.59;102400.88;5078064;28;45920;-75
2022/03/24 03:35:36;;;;;;;;;61.75;47.25;;;;;8.29;51.22;102432.31;5062934;28;45391;-74
2022/03/24 03:38:01;;;;;;;;;58.25;43.75;;;;;8.35;51.53;102443.22;5078086;27;45365;-74
2022/03/24 03:40:27;;;;;;;;;50.75;43.50;;;;;8.24;51.48;102420.59;5079127;28;45257;-75
2022/03/24 03:42:53;;;;;;;;;58.00;46.75;;;;;8.37;51.79;102438.94;5073630;27;45453;-75
2022/03/24 03:45:18;;;;;;;;;57.75;45.25;;;;;8.35;51.27;102437.06;5075803;27;45350;-74
2022/03/24 03:47:43;;;;;;;;;61.75;47.25;;;;;8.33;51.45;102442.22;5073359;28;45284;-75
2022/03/24 03:50:09;;;;;;;;;65.75;47.00;;;;;8.25;51.16;102422.41;5074802;28;45343;-76
2022/03/24 03:52:34;;;;;;;;;54.75;44.50;;;;;8.24;51.66;102432.03;5077066;28;45332;-75
2022/03/24 03:55:00;;;;;;;;;46.50;40.25;;;;;8.25;51.92;102438.22;5078146;27;46221;-76
2022/03/24 03:57:25;;;;;;;;;62.25;48.50;;;;;8.03;51.18;102410.56;5075273;28;45354;-75
2022/03/24 03:59:50;;;;;;;;;52.75;42.00;;;;;8.20;52.08;102437.03;5066715;27;45526;-75
2022/03/24 04:02:16;;;;;;;;;57.75;47.50;;;;;8.14;52.06;102434.03;5075006;28;45233;-75
2022/03/24 04:04:42;;;;;;;;;59.00;45.00;;;;;8.08;52.06;102422.28;5069953;27;45398;-75
2022/03/24 04:07:07;;;;;;;;;61.50;45.75;;;;;8.09;50.42;102428.47;5065834;28;45297;-75
2022/03/24 04:09:33;;;;;;;;;57.75;45.50;;;;;8.03;51.73;102425.47;5074747;28;45274;-75
2022/03/24 04:11:58;;;;;;;;;55.25;44.75;;;;;8.05;52.57;102432.66;5077022;27;45530;-75
2022/03/24 04:14:25;;;;;;;;;58.00;45.75;;;;;8.10;52.00;102447.84;5076391;28;47272;-75
2022/03/24 04:16:51;;;;;;;;;54.25;46.00;;;;;8.08;51.76;102439.81;5077118;28;45438;-75
2022/03/24 04:19:19;;;;;;;;;58.25;45.25;;;;;8.04;53.05;102448.38;5078153;27;45520;-75
2022/03/24 04:21:45;;;;;;;;;54.50;42.00;;;;;7.96;52.75;102437.38;5072747;27;45521;-74
2022/03/24 04:24:11;;;;;;;;;58.00;45.00;;;;;7.87;53.25;102422.72;5078394;27;46529;-75
2022/03/24 04:26:37;;;;;;;;;58.75;46.25;;;;;7.99;53.94;102441.91;5073866;28;45369;-75
2022/03/24 04:29:03;;;;;;;;;59.00;46.25;;;;;7.99;53.12;102445.44;5074783;27;45291;-75
2022/03/24 04:31:28;;;;;;;;;56.00;44.75;;;;;7.97;52.63;102436.53;5075742;28;45531;-75
2022/03/24 04:33:54;;;;;;;;;54.50;41.75;;;;;7.68;53.59;102397.00;5076355;28;47320;-75
2022/03/24 04:36:20;;;;;;;;;54.00;43.75;;;;;7.85;53.64;102433.16;5077079;28;45815;-75
2022/03/24 04:38:45;;;;;;;;;58.75;45.00;;;;;7.75;53.40;102410.63;5078090;27;45237;-75
2022/03/24 04:41:11;;;;;;;;;55.75;46.25;;;;;7.82;53.28;102431.25;5080525;28;45382;-75
2022/03/24 04:43:37;;;;;;;;;55.75;42.25;;;;;7.87;53.40;102444.72;5081628;27;46903;-75
2022/03/24 04:46:03;;;;;;;;;59.25;45.50;;;;;7.84;53.65;102447.13;5080072;27;45345;-75
2022/03/24 04:48:29;;;;;;;;;57.75;45.00;;;;;7.82;53.73;102440.88;5079671;28;45510;-75
2022/03/24 04:50:54;;;;;;;;;58.25;45.00;;;;;7.77;53.19;102440.59;5072377;28;45316;-75
2022/03/24 04:53:20;;;;;;;;;56.00;40.50;;;;;7.43;53.79;102384.94;5078128;28;47535;-75
2022/03/24 04:55:46;;;;;;;;;50.50;41.00;;;;;7.75;54.25;102446.56;5077524;28;45403;-75
2022/03/24 04:58:13;;;;;;;;;55.50;42.25;;;;;7.73;53.57;102437.66;5074139;28;45435;-74
2022/03/24 05:00:39;;;;;;;;;52.75;43.50;;;;;7.71;54.70;102442.84;5079745;27;46062;-74
2022/03/24 05:03:04;;;;;;;;;54.75;45.00;;;;;7.60;53.62;102426.38;5080480;28;45434;-75
2022/03/24 05:05:30;;;;;;;;;58.75;45.00;;;;;7.67;53.86;102432.00;5080182;28;45257;-75
2022/03/24 05:07:55;;;;;;;;;57.00;46.25;;;;;7.31;53.29;102378.91;5080140;27;45257;-74
2022/03/24 05:10:21;;;;;;;;;54.25;41.50;;;;;7.59;54.83;102435.09;5072359;27;45446;-75
2022/03/24 05:12:46;;;;;;;;;57.75;45.25;;;;;7.58;54.38;102437.63;5078943;28;48630;-75
2022/03/24 05:15:13;;;;;;;;;54.25;44.25;;;;;7.56;54.54;102445.44;5081471;27;45608;-75
2022/03/24 05:17:40;;;;;;;;;53.75;44.00;;;;;7.49;54.65;102437.03;5080949;28;45473;-75
2022/03/24 05:20:07;;;;;;;;;60.25;47.00;;;;;7.30;54.14;102400.75;5081827;27;45529;-75
2022/03/24 05:22:33;;;;;;;;;55.00;43.50;;;;;7.50;54.64;102439.75;5079159;28;45441;-75
2022/03/24 05:24:59;;;;;;;;;56.25;45.75;;;;;7.49;54.87;102448.47;5081026;27;45247;-75
2022/03/24 05:27:24;;;;;;;;;62.00;48.50;;;;;7.22;54.34;102404.63;5079999;28;45653;-75
2022/03/24 05:29:49;;;;;;;;;62.00;50.00;;;;;7.23;54.70;102417.88;5081380;27;45235;-74
2022/03/24 05:32:15;;;;;;;;;65.25;50.00;;;;;7.42;55.07;102450.59;5077112;27;45394;-74
2022/03/24 05:34:40;;;;;;;;;58.00;46.00;;;;;7.25;55.22;102418.88;5081084;27;45267;-75
2022/03/24 05:37:06;;;;;;;;;60.25;44.25;;;;;7.35;55.43;102438.81;5056918;28;45309;-74
2022/03/24 05:39:31;;;;;;;;;58.25;48.00;;;;;7.38;55.32;102455.69;5077622;28;45180;-75
2022/03/24 05:41:57;;;;;;;;;58.00;44.75;;;;;7.31;55.87;102440.34;5078248;28;45657;-75
2022/03/24 05:44:23;;;;;;;;;70.00;50.75;;;;;7.14;55.14;102405.06;5079265;27;45237;-75
2022/03/24 05:46:49;;;;;;;;;55.50;45.00;;;;;7.36;54.78;102453.75;5077347;28;45353;-76
2022/03/24 05:49:17;;;;;;;;;60.25;47.00;;;;;7.05;54.65;102398.28;5078367;28;46151;-75
2022/03/24 05:51:43;;;;;;;;;58.50;45.25;;;;;7.34;55.61;102458.03;5078714;28;45465;-75
2022/03/24 05:54:10;;;;;;;;;60.75;46.50;;;;;7.33;55.46;102451.84;5076736;28;45307;-76
2022/03/24 05:56:36;;;;;;;;;61.50;49.75;;;;;7.30;56.10;102451.66;5078875;27;45439;-76
2022/03/24 05:59:01;;;;;;;;;58.25;46.00;;;;;7.25;54.88;102436.38;5078125;28;46161;-75
2022/03/24 06:01:27;;;;;;;;;63.50;50.75;;;;;7.21;56.00;102437.00;5078563;27;46466;-76
2022/03/24 06:03:53;;;;;;;;;61.75;49.00;;;;;7.14;56.68;102417.28;5070831;28;45431;-76
2022/03/24 06:06:20;;;;;;;;;65.50;49.75;;;;;7.15;56.43;102427.00;5075944;28;45521;-75
2022/03/24 06:08:52;;;;;;;;;61.50;50.25;;;;;7.36;56.15;102464.28;5075949;28;46918;-76
2022/03/24 06:11:18;;;;;;;;;64.25;50.50;;;;;7.35;57.11;102463.38;5078571;28;45444;-75
2022/03/24 06:13:45;;;;;;;;;60.50;49.00;;;;;7.37;57.08;102460.84;5060732;28;45418;-75
2022/03/24 06:16:13;;;;;;;;;61.50;50.00;;;;;7.17;56.78;102428.94;5078586;28;45314;-75
2022/03/24 06:18:39;;;;;;;;;61.25;49.50;;;;;7.30;56.71;102448.13;5079157;28;45322;-75
2022/03/24 06:21:05;;;;;;;;;58.75;48.00;;;;;7.39;55.96;102461.84;5075987;28;46289;-76
2022/03/24 06:23:30;;;;;;;;;69.00;52.75;;;;;7.39;57.00;102454.88;5075543;28;45256;-76
2022/03/24 06:25:56;;;;;;;;;66.75;50.75;;;;;7.36;56.66;102453.75;5078737;27;45463;-74
2022/03/24 06:28:21;;;;;;;;;62.50;47.50;;;;;7.45;57.24;102461.31;5079415;27;45253;-75
2022/03/24 06:30:47;;;;;;;;;60.50;49.75;;;;;7.47;57.31;102460.59;5074805;28;46018;-76
2022/03/24 06:33:13;;;;;;;;;64.50;50.75;;;;;7.38;56.77;102447.78;5079490;28;45490;-75
2022/03/24 06:35:39;;;;;;;;;65.00;49.25;;;;;7.49;53.99;102466.00;5078259;28;45421;-76
2022/03/24 06:38:04;;;;;;;;;66.00;51.25;;;;;7.52;56.49;102464.44;5078862;28;45529;-76
2022/03/24 06:40:30;;;;;;;;;62.25;50.50;;;;;7.46;57.08;102453.53;5078501;27;46095;-76
2022/03/24 06:42:55;;;;;;;;;61.75;48.25;;;;;7.47;56.98;102452.72;5078946;27;45501;-75
2022/03/24 06:45:21;;;;;;;;;69.75;53.50;;;;;7.65;57.76;102468.78;5078826;28;46019;-75
2022/03/24 06:47:46;;;;;;;;;63.00;47.75;;;;;7.54;57.86;102440.88;5079193;28;45787;-74
2022/03/24 06:50:13;;;;;;;;;63.25;51.75;;;;;7.74;57.62;102471.97;5078808;27;45585;-74
2022/03/24 06:52:43;;;;;;;;;69.25;52.00;;;;;7.80;56.45;102463.56;5077840;28;45414;-74
2022/03/24 06:55:09;;;;;;;;;64.25;50.00;;;;;7.85;56.54;102470.94;5075980;27;45392;-75
2022/03/24 06:57:36;;;;;;;;;55.00;44.00;;;;;7.70;53.82;102421.66;5071474;28;45518;-75
2022/03/24 07:00:04;;;;;;;;;46.25;36.25;;;;;8.13;52.21;102463.81;5078361;27;45142;-75
2022/03/24 07:02:30;;;;;;;;;54.00;40.25;;;;;8.32;51.51;102466.75;5067074;28;45271;-75
2022/03/24 07:04:55;;;;;;;;;46.50;37.00;;;;;8.39;50.86;102441.72;5078849;27;45373;-74
2022/03/24 07:07:20;;;;;;;;;52.00;41.00;;;;;8.76;50.35;102465.88;5074449;28;46132;-75
2022/03/24 07:09:46;;;;;;;;;50.00;41.50;;;;;8.98;49.96;102469.75;5078519;28;45324;-75
2022/03/24 07:12:11;;;;;;;;;50.50;40.00;;;;;8.70;49.65;102395.22;5070645;28;45475;-74
2022/03/24 07:14:37;;;;;;;;;54.00;43.50;;;;;9.32;49.58;102462.00;5076726;28;45300;-78
2022/03/24 07:17:04;;;;;;;;;57.75;44.00;;;;;9.58;48.97;102471.41;5077664;28;45363;-75
2022/03/24 07:19:29;;;;;;;;;48.75;38.00;;;;;9.46;47.42;102418.81;5077985;28;46195;-75
2022/03/24 07:21:55;;;;;;;;;47.00;38.75;;;;;9.73;47.93;102431.72;5073028;28;45498;-76
2022/03/24 07:24:20;;;;;;;;;46.00;36.75;;;;;10.00;46.48;102440.22;5073936;28;45564;-76
2022/03/24 07:26:46;;;;;;;;;56.75;38.25;;;;;10.14;46.19;102433.94;5075050;28;46870;-77
2022/03/24 07:29:11;;;;;;;;;51.25;39.00;;;;;10.34;45.76;102440.28;5074810;28;47180;-75
2022/03/24 07:31:37;;;;;;;;;41.25;36.50;;;;;10.66;45.79;102460.41;5075956;28;45792;-75
2022/03/24 07:34:04;;;;;;;;;48.00;37.25;;;;;10.43;45.85;102394.91;5075531;28;45411;-75
2022/03/24 07:36:29;;;;;;;;;48.75;41.00;;;;;10.90;44.63;102446.63;5071626;28;45418;-75
2022/03/24 07:38:57;;;;;;;;;46.00;36.50;;;;;11.09;44.25;102454.63;5074769;28;46114;-74
2022/03/24 07:41:23;;;;;;;;;52.25;39.00;;;;;11.20;44.43;102442.81;5073135;28;46165;-75
2022/03/24 07:43:49;;;;;;;;;49.25;40.00;;;;;11.51;44.00;102473.41;5076047;28;45385;-76
2022/03/24 07:46:14;;;;;;;;;49.75;39.00;;;;;11.61;43.18;102459.75;5076846;28;45279;-75
2022/03/24 07:48:40;;;;;;;;;53.75;41.25;;;;;11.63;43.10;102433.34;5075930;28;47566;-75
2022/03/24 07:51:07;;;;;;;;;76.25;59.00;;;;;11.90;42.27;102449.59;5072089;28;45419;-75
2022/03/24 07:53:39;;;;;;;;;49.00;37.25;;;;;12.21;42.62;102466.88;5071936;28;45229;-76
2022/03/24 07:56:05;;;;;;;;;44.00;35.00;;;;;12.27;41.04;102467.19;5074082;28;45448;-74
2022/03/24 07:58:31;;;;;;;;;53.75;40.75;;;;;12.37;42.81;102461.44;5077269;28;45448;-75
2022/03/24 08:00:57;;;;;;;;;46.00;37.00;;;;;12.61;41.26;102484.56;5077049;27;45442;-74
2022/03/24 08:03:23;;;;;;;;;45.50;35.25;;;;;12.63;41.21;102470.53;5068668;27;45426;-74
2022/03/24 08:05:49;;;;;;;;;49.75;40.25;;;;;12.82;41.26;102484.56;5076428;28;45340;-75
2022/03/24 08:08:16;;;;;;;;;46.75;35.75;;;;;12.91;39.77;102474.31;5080119;28;45987;-75
2022/03/24 08:10:45;;;;;;;;;49.75;41.25;;;;;12.95;40.08;102458.59;5081084;27;45366;-78
2022/03/24 08:13:13;;;;;;;;;48.50;39.00;;;;;13.22;41.14;102471.19;5072602;27;45502;-74
2022/03/24 08:15:39;;;;;;;;;48.25;37.75;;;;;13.34;40.50;102452.22;5078854;28;47191;-74
2022/03/24 08:18:05;;;;;;;;;52.25;41.25;;;;;13.36;39.10;102439.88;5079745;28;48570;-74
2022/03/24 08:20:32;;;;;;;;;50.00;38.00;;;;;13.78;39.28;102485.84;5080895;28;45222;-74
2022/03/24 08:22:58;;;;;;;;;55.75;41.75;;;;;13.72;38.19;102447.47;5072512;28;45477;-74
2022/03/24 08:25:24;;;;;;;;;57.75;42.75;;;;;14.07;40.55;102478.03;5071993;28;45429;-74
2022/03/24 08:27:49;;;;;;;;;49.00;38.25;;;;;14.28;38.30;102489.47;5073286;27;45428;-74
2022/03/24 08:30:15;;;;;;;;;51.00;41.25;;;;;14.46;37.92;102481.22;5071508;28;45381;-74
2022/03/24 08:32:41;;;;;;;;;47.75;38.25;;;;;14.71;37.83;102484.78;5075494;27;45346;-74
2022/03/24 08:35:07;;;;;;;;;50.25;38.75;;;;;14.86;37.74;102477.31;5072726;28;45422;-74
2022/03/24 08:37:32;;;;;;;;;49.50;39.25;;;;;15.12;36.62;102488.81;5070095;28;48135;-75
2022/03/24 08:39:58;;;;;;;;;51.25;42.00;;;;;15.35;37.60;102483.34;5064504;28;45215;-75
2022/03/24 08:42:23;;;;;;;;;48.25;41.75;;;;;15.61;35.59;102490.38;5078614;28;46174;-73
2022/03/24 08:44:49;;;;;;;;;50.50;39.25;;;;;15.76;36.93;102476.63;5073207;27;45402;-74
2022/03/24 08:47:15;;;;;;;;;51.50;38.75;;;;;16.01;35.83;102475.59;5080072;28;45946;-74
2022/03/24 08:49:40;;;;;;;;;52.00;41.75;;;;;16.23;35.04;102490.44;5063215;28;45330;-74
2022/03/24 08:52:06;;;;;;;;;47.00;38.25;;;;;16.24;34.11;102470.00;5077725;28;45331;-74
2022/03/24 08:54:31;;;;;;;;;49.75;37.50;;;;;16.46;35.73;102500.88;5074519;28;45321;-74
2022/03/24 08:56:57;;;;;;;;;50.50;40.25;;;;;16.43;35.08;102485.66;5080110;28;46318;-74
2022/03/24 08:59:22;;;;;;;;;49.75;39.50;;;;;16.51;33.48;102486.78;5080968;27;45401;-73
2022/03/24 09:01:47;;;;;;;;;48.75;40.00;;;;;16.54;35.50;102470.84;5070925;27;45406;-74
2022/03/24 09:04:14;;;;;;;;;53.25;41.75;;;;;16.64;33.72;102468.44;5073846;28;45582;-74
2022/03/24 09:06:39;;;;;;;;;50.00;39.00;;;;;16.84;34.11;102487.69;5077358;27;46224;-74
2022/03/24 09:09:05;;;;;;;;;48.25;38.50;;;;;16.89;34.84;102464.66;5074187;28;45397;-73
2022/03/24 09:11:31;;;;;;;;;51.00;39.50;;;;;17.16;33.53;102473.31;5078836;27;45432;-74
2022/03/24 09:13:57;;;;;;;;;55.25;41.50;;;;;17.49;32.93;102487.47;5071449;28;45447;-74
2022/03/24 09:16:23;;;;;;;;;49.50;41.25;;;;;17.71;32.52;102481.72;5079686;27;45376;-74
2022/03/24 09:18:48;;;;;;;;;51.00;41.50;;;;;17.87;31.74;102454.47;5070176;28;45291;-74
2022/03/24 09:21:14;;;;;;;;;48.75;39.75;;;;;18.25;31.22;102466.81;5076564;27;45466;-74
2022/03/24 09:23:40;;;;;;;;;52.50;41.00;;;;;18.58;30.72;102498.69;5077867;28;46134;-74
2022/03/24 09:26:05;;;;;;;;;37.75;34.75;;;;;18.70;34.02;102481.91;5077642;27;45620;-74
2022/03/24 09:28:31;;;;;;;;;53.25;39.00;;;;;18.98;30.53;102496.72;5068942;28;45245;-74
2022/03/24 09:30:57;;;;;;;;;52.75;39.25;;;;;19.26;32.13;102495.41;5074471;28;45178;-74
2022/03/24 09:33:23;;;;;;;;;45.50;37.25;;;;;19.33;30.89;102467.81;5078430;28;45657;-75
2022/03/24 09:35:50;;;;;;;;;48.50;39.50;;;;;19.56;33.00;102462.75;5076481;28;45851;-73
2022/03/24 09:38:18;;;;;;;;;47.00;38.50;;;;;19.80;29.01;102462.25;5076291;27;45405;-76
2022/03/24 09:40:45;;;;;;;;;50.75;40.75;;;;;20.20;29.36;102494.03;5075486;28;45244;-75
2022/03/24 09:43:13;;;;;;;;;46.50;36.50;;;;;20.36;27.50;102477.19;5068448;28;45956;-74
2022/03/24 09:45:42;;;;;;;;;50.00;38.75;;;;;20.49;27.53;102471.06;5077063;28;45657;-74
2022/03/24 09:48:10;;;;;;;;;49.50;38.75;;;;;20.71;29.11;102485.66;5068677;27;45575;-74
2022/03/24 09:50:36;;;;;;;;;50.75;39.75;;;;;20.95;27.83;102486.78;5078503;28;45230;-74
2022/03/24 09:53:03;;;;;;;;;48.25;37.75;;;;;20.64;27.77;102469.44;5072831;28;45390;-74
2022/03/24 09:55:32;;;;;;;;;50.50;40.00;;;;;20.70;28.33;102483.84;5077721;28;46212;-74
2022/03/24 09:57:59;;;;;;;;;52.00;42.00;;;;;20.72;28.16;102482.06;5073340;28;45491;-74
2022/03/24 10:00:25;;;;;;;;;51.00;40.75;;;;;20.55;26.77;102441.59;5077824;28;45272;-74
2022/03/24 10:03:26;;;;;;;;;48.50;38.75;;;;;21.11;26.84;102480.59;5069063;28;45301;-74
2022/03/24 10:05:59;;;;;;;;;44.50;37.50;;;;;21.38;27.48;102473.66;5040732;28;45459;-74
2022/03/24 10:08:28;;;;;;;;;55.25;43.25;;;;;21.63;26.32;102472.00;5071345;27;45436;-73
2022/03/24 10:11:02;;;;;;;;;49.75;41.50;;;;;21.76;27.95;102457.72;5078972;27;45424;-73
2022/03/24 10:13:43;;;;;;;;;50.75;42.25;;;;;22.10;27.63;102474.91;5075038;28;45977;-74
2022/03/24 10:16:11;;;;;;;;;52.75;41.50;;;;;22.32;25.89;102474.97;5078413;27;46799;-74
2022/03/24 10:18:37;;;;;;;;;41.67;36.00;;;;;22.56;24.70;102475.03;5070528;27;45404;-74
2022/03/24 10:21:08;;;;;;;;;46.33;38.67;;;;;22.52;28.13;102446.28;5077457;27;45674;-74
2022/03/24 10:23:43;;;;;;;;;47.33;39.33;;;;;22.58;27.25;102456.19;5068178;28;45468;-74
2022/03/24 10:26:08;;;;;;;;;50.33;40.00;;;;;22.78;25.82;102443.59;5073921;28;45399;-74
2022/03/24 10:28:34;;;;;;;;;48.00;39.00;;;;;23.07;24.62;102464.28;5075518;28;45323;-74
2022/03/24 10:30:59;;;;;;;;;50.33;41.00;;;;;22.94;26.02;102457.09;5077112;28;45311;-74
2022/03/24 10:33:34;;;;;;;;;50.67;37.33;;;;;23.12;25.66;102467.88;5070047;27;45499;-74
2022/03/24 10:36:19;;;;;;;;;48.33;36.67;;;;;23.29;26.86;102466.97;5076398;27;46205;-74
2022/03/24 10:38:47;;;;;;;;;45.00;36.00;;;;;23.41;25.93;102466.94;5078566;27;45378;-75
2022/03/24 10:41:24;;;;;;;;;50.00;39.67;;;;;23.12;25.51;102389.66;5078624;28;45465;-74
2022/03/24 10:43:52;;;;;;;;;37.33;32.33;;;;;23.55;24.33;102457.00;5070335;28;45467;-74
2022/03/24 10:46:31;;;;;;;;;45.33;33.33;;;;;23.76;24.62;102460.56;5072085;28;47016;-74
2022/03/24 10:48:58;;;;;;;;;43.33;36.00;;;;;23.99;23.93;102458.66;5064614;28;45476;-75
2022/03/24 10:51:30;;;;;;;;;47.00;38.00;;;;;24.23;24.17;102454.03;5064939;28;45316;-74
2022/03/24 10:54:25;;;;;;;;;45.00;36.33;;;;;24.40;25.74;102453.94;5073327;28;45493;-74
2022/03/24 10:57:06;;;;;;;;;49.00;37.33;;;;;24.59;25.20;102457.41;5074374;28;45577;-74
2022/03/24 10:59:37;;;;;;;;;45.00;34.00;;;;;24.56;23.84;102455.63;5071835;28;45325;-75
2022/03/24 11:02:03;;;;;;;;;47.33;36.67;;;;;24.59;21.96;102454.72;5072834;28;45382;-75
2022/03/24 11:04:28;;;;;;;;;45.33;36.00;;;;;24.60;22.84;102451.13;5075115;28;45241;-74
2022/03/24 11:06:54;;;;;;;;;48.00;37.00;;;;;24.82;22.98;102452.75;5075414;27;46216;-76
2022/03/24 11:09:27;;;;;;;;;46.00;35.67;;;;;24.93;21.98;102441.81;5075974;27;45296;-76
2022/03/24 11:12:26;;;;;;;;;38.33;34.33;;;;;24.71;20.94;102451.94;5066666;28;45331;-73
2022/03/24 11:14:56;;;;;;;;;43.00;33.67;;;;;24.62;22.42;102455.59;5074592;28;45666;-73
2022/03/24 11:17:24;;;;;;;;;48.33;37.67;;;;;24.67;23.45;102442.91;5069591;28;45420;-72